sensor_id;sensor_type;location;lat;lon;timestamp;temperature;humidity
15574;DHT22;7888;46.748;8.102;2023-02-25T00:01:22;13.60;51.40
15574;DHT22;7888;46.748;8.102;2023-02-25T00:03:54;13.60;51.40
15574;DHT22;7888;46.748;8.102;2023-02-25T00:06:22;13.60;51.60
15574;DHT22;7888;46.748;8.102;2023-02-25T00:08:49;13.60;51.30
15574;DHT22;7888;46.748;8.102;2023-02-25T00:11:16;13.50;51.30
15574;DHT22;7888;46.748;8.102;2023-02-25T00:13:43;13.50;51.40
15574;DHT22;7888;46.748;8.102;2023-02-25T00:16:11;13.50;51.40
15574;DHT22;7888;46.748;8.102;2023-02-25T00:18:37;13.40;51.30
15574;DHT22;7888;46.748;8.102;2023-02-25T00:21:06;13.40;51.30
15574;DHT22;7888;46.748;8.102;2023-02-25T00:23:34;13.30;51.30
15574;DHT22;7888;46.748;8.102;2023-02-25T00:26:02;13.30;51.10
15574;DHT22;7888;46.748;8.102;2023-02-25T00:28:32;13.30;51.10
15574;DHT22;7888;46.748;8.102;2023-02-25T00:30:59;13.20;51.00
15574;DHT22;7888;46.748;8.102;2023-02-25T00:33:24;13.20;51.00
15574;DHT22;7888;46.748;8.102;2023-02-25T00:35:50;13.10;51.00
15574;DHT22;7888;46.748;8.102;2023-02-25T00:38:17;13.10;51.00
15574;DHT22;7888;46.748;8.102;2023-02-25T00:40:43;13.10;51.00
15574;DHT22;7888;46.748;8.102;2023-02-25T00:43:08;13.10;50.90
15574;DHT22;7888;46.748;8.102;2023-02-25T00:45:36;13.00;50.90
15574;DHT22;7888;46.748;8.102;2023-02-25T00:48:03;13.00;50.90
15574;DHT22;7888;46.748;8.102;2023-02-25T00:50:29;13.00;50.80
15574;DHT22;7888;46.748;8.102;2023-02-25T00:52:55;12.90;50.70
15574;DHT22;7888;46.748;8.102;2023-02-25T00:55:21;12.90;50.80
15574;DHT22;7888;46.748;8.102;2023-02-25T00:57:46;12.80;51.40
15574;DHT22;7888;46.748;8.102;2023-02-25T01:00:12;12.90;50.80
15574;DHT22;7888;46.748;8.102;2023-02-25T01:02:44;12.80;50.80
15574;DHT22;7888;46.748;8.102;2023-02-25T01:05:12;12.80;50.90
15574;DHT22;7888;46.748;8.102;2023-02-25T01:07:38;12.80;51.00
15574;DHT22;7888;46.748;8.102;2023-02-25T01:10:05;12.80;50.90
15574;DHT22;7888;46.748;8.102;2023-02-25T01:12:31;12.80;51.00
15574;DHT22;7888;46.748;8.102;2023-02-25T01:14:57;12.80;50.90
15574;DHT22;7888;46.748;8.102;2023-02-25T01:17:23;12.80;50.80
15574;DHT22;7888;46.748;8.102;2023-02-25T01:19:49;12.70;50.70
15574;DHT22;7888;46.748;8.102;2023-02-25T01:22:14;12.70;50.70
15574;DHT22;7888;46.748;8.102;2023-02-25T01:24:40;12.70;50.70
15574;DHT22;7888;46.748;8.102;2023-02-25T01:27:06;12.70;50.70
15574;DHT22;7888;46.748;8.102;2023-02-25T01:29:37;12.70;50.90
15574;DHT22;7888;46.748;8.102;2023-02-25T01:32:07;12.60;51.10
15574;DHT22;7888;46.748;8.102;2023-02-25T01:34:35;12.60;51.00
15574;DHT22;7888;46.748;8.102;2023-02-25T01:37:01;12.60;51.00
15574;DHT22;7888;46.748;8.102;2023-02-25T01:39:27;12.60;51.10
15574;DHT22;7888;46.748;8.102;2023-02-25T01:41:56;12.50;51.30
15574;DHT22;7888;46.748;8.102;2023-02-25T01:44:31;12.50;51.40
15574;DHT22;7888;46.748;8.102;2023-02-25T01:46:58;12.50;51.80
15574;DHT22;7888;46.748;8.102;2023-02-25T01:52:15;12.40;51.80
15574;DHT22;7888;46.748;8.102;2023-02-25T01:54:49;12.40;51.60
15574;DHT22;7888;46.748;8.102;2023-02-25T01:57:18;12.40;51.40
15574;DHT22;7888;46.748;8.102;2023-02-25T01:59:46;12.40;51.60
15574;DHT22;7888;46.748;8.102;2023-02-25T02:02:16;12.40;51.70
15574;DHT22;7888;46.748;8.102;2023-02-25T02:04:44;12.40;52.00
15574;DHT22;7888;46.748;8.102;2023-02-25T02:07:16;12.40;52.00
15574;DHT22;7888;46.748;8.102;2023-02-25T02:09:43;12.40;51.90
15574;DHT22;7888;46.748;8.102;2023-02-25T02:12:33;12.40;51.90
15574;DHT22;7888;46.748;8.102;2023-02-25T02:15:05;12.40;51.90
15574;DHT22;7888;46.748;8.102;2023-02-25T02:20:24;12.40;52.60
15574;DHT22;7888;46.748;8.102;2023-02-25T02:26:29;12.40;52.40
15574;DHT22;7888;46.748;8.102;2023-02-25T02:40:32;12.30;52.50
15574;DHT22;7888;46.748;8.102;2023-02-25T02:43:40;12.30;52.90
15574;DHT22;7888;46.748;8.102;2023-02-25T02:48:54;12.30;52.10
15574;DHT22;7888;46.748;8.102;2023-02-25T02:51:37;12.30;52.80
15574;DHT22;7888;46.748;8.102;2023-02-25T02:54:07;12.30;52.50
15574;DHT22;7888;46.748;8.102;2023-02-25T02:56:37;12.30;52.40
15574;DHT22;7888;46.748;8.102;2023-02-25T02:59:14;12.30;52.50
15574;DHT22;7888;46.748;8.102;2023-02-25T03:01:52;12.20;52.70
15574;DHT22;7888;46.748;8.102;2023-02-25T03:04:33;12.20;52.80
15574;DHT22;7888;46.748;8.102;2023-02-25T03:07:04;12.20;52.70
15574;DHT22;7888;46.748;8.102;2023-02-25T03:09:38;12.20;52.70
15574;DHT22;7888;46.748;8.102;2023-02-25T03:12:07;12.20;52.80
15574;DHT22;7888;46.748;8.102;2023-02-25T03:14:35;12.20;52.70
15574;DHT22;7888;46.748;8.102;2023-02-25T03:17:08;12.20;52.70
15574;DHT22;7888;46.748;8.102;2023-02-25T03:19:42;12.20;53.00
15574;DHT22;7888;46.748;8.102;2023-02-25T03:22:19;12.20;52.80
15574;DHT22;7888;46.748;8.102;2023-02-25T03:25:06;12.20;52.90
15574;DHT22;7888;46.748;8.102;2023-02-25T03:27:39;12.20;52.70
15574;DHT22;7888;46.748;8.102;2023-02-25T03:33:25;12.10;52.90
15574;DHT22;7888;46.748;8.102;2023-02-25T03:36:31;12.10;53.10
15574;DHT22;7888;46.748;8.102;2023-02-25T03:39:08;12.10;52.70
15574;DHT22;7888;46.748;8.102;2023-02-25T03:41:40;12.10;53.10
15574;DHT22;7888;46.748;8.102;2023-02-25T03:44:14;12.10;52.80
15574;DHT22;7888;46.748;8.102;2023-02-25T03:46:44;12.10;53.10
15574;DHT22;7888;46.748;8.102;2023-02-25T03:49:17;12.10;52.90
15574;DHT22;7888;46.748;8.102;2023-02-25T03:51:47;12.10;53.10
15574;DHT22;7888;46.748;8.102;2023-02-25T03:54:16;12.10;52.80
15574;DHT22;7888;46.748;8.102;2023-02-25T03:56:44;12.10;52.90
15574;DHT22;7888;46.748;8.102;2023-02-25T03:59:12;12.10;53.00
15574;DHT22;7888;46.748;8.102;2023-02-25T04:01:40;12.10;53.00
15574;DHT22;7888;46.748;8.102;2023-02-25T04:04:09;12.10;53.10
15574;DHT22;7888;46.748;8.102;2023-02-25T04:06:35;12.10;53.10
15574;DHT22;7888;46.748;8.102;2023-02-25T04:09:01;12.10;53.10
15574;DHT22;7888;46.748;8.102;2023-02-25T04:11:27;12.10;53.10
15574;DHT22;7888;46.748;8.102;2023-02-25T04:13:53;12.10;53.20
15574;DHT22;7888;46.748;8.102;2023-02-25T04:16:19;12.00;53.00
15574;DHT22;7888;46.748;8.102;2023-02-25T04:18:45;12.00;53.00
15574;DHT22;7888;46.748;8.102;2023-02-25T04:21:24;12.00;53.10
15574;DHT22;7888;46.748;8.102;2023-02-25T04:23:52;11.90;53.70
15574;DHT22;7888;46.748;8.102;2023-02-25T04:26:18;11.90;53.20
15574;DHT22;7888;46.748;8.102;2023-02-25T04:28:44;11.90;53.30
15574;DHT22;7888;46.748;8.102;2023-02-25T04:31:10;11.90;53.50
15574;DHT22;7888;46.748;8.102;2023-02-25T04:33:36;11.90;53.60
15574;DHT22;7888;46.748;8.102;2023-02-25T04:36:01;11.90;53.60
15574;DHT22;7888;46.748;8.102;2023-02-25T04:38:27;11.90;53.60
15574;DHT22;7888;46.748;8.102;2023-02-25T04:40:53;11.90;53.60
15574;DHT22;7888;46.748;8.102;2023-02-25T04:43:19;11.80;53.90
15574;DHT22;7888;46.748;8.102;2023-02-25T04:45:45;11.90;53.90
15574;DHT22;7888;46.748;8.102;2023-02-25T04:48:11;11.90;53.90
15574;DHT22;7888;46.748;8.102;2023-02-25T04:50:36;11.80;53.50
15574;DHT22;7888;46.748;8.102;2023-02-25T04:53:02;11.90;53.60
15574;DHT22;7888;46.748;8.102;2023-02-25T04:55:29;11.90;53.70
15574;DHT22;7888;46.748;8.102;2023-02-25T04:57:55;11.90;53.80
15574;DHT22;7888;46.748;8.102;2023-02-25T05:00:22;11.80;53.60
15574;DHT22;7888;46.748;8.102;2023-02-25T05:02:49;11.80;53.60
15574;DHT22;7888;46.748;8.102;2023-02-25T05:05:16;11.80;53.60
15574;DHT22;7888;46.748;8.102;2023-02-25T05:07:42;11.80;53.70
15574;DHT22;7888;46.748;8.102;2023-02-25T05:10:09;11.80;53.70
15574;DHT22;7888;46.748;8.102;2023-02-25T05:12:38;11.80;53.80
15574;DHT22;7888;46.748;8.102;2023-02-25T05:15:05;11.80;53.70
15574;DHT22;7888;46.748;8.102;2023-02-25T05:17:33;11.80;53.80
15574;DHT22;7888;46.748;8.102;2023-02-25T05:20:00;11.80;53.80
15574;DHT22;7888;46.748;8.102;2023-02-25T05:22:27;11.80;53.80
15574;DHT22;7888;46.748;8.102;2023-02-25T05:24:52;11.80;54.30
15574;DHT22;7888;46.748;8.102;2023-02-25T05:27:18;11.80;53.70
15574;DHT22;7888;46.748;8.102;2023-02-25T05:29:44;11.80;53.60
15574;DHT22;7888;46.748;8.102;2023-02-25T05:32:10;11.80;53.50
15574;DHT22;7888;46.748;8.102;2023-02-25T05:34:36;11.80;53.40
15574;DHT22;7888;46.748;8.102;2023-02-25T05:37:02;11.80;53.50
15574;DHT22;7888;46.748;8.102;2023-02-25T05:39:27;11.80;53.70
15574;DHT22;7888;46.748;8.102;2023-02-25T05:41:53;11.80;53.70
15574;DHT22;7888;46.748;8.102;2023-02-25T05:44:19;11.80;53.70
15574;DHT22;7888;46.748;8.102;2023-02-25T05:46:45;11.80;53.80
15574;DHT22;7888;46.748;8.102;2023-02-25T05:49:10;11.80;53.80
15574;DHT22;7888;46.748;8.102;2023-02-25T05:51:36;11.80;53.80
15574;DHT22;7888;46.748;8.102;2023-02-25T05:54:03;11.80;53.80
15574;DHT22;7888;46.748;8.102;2023-02-25T05:56:29;11.80;53.80
15574;DHT22;7888;46.748;8.102;2023-02-25T05:58:55;11.80;53.60
15574;DHT22;7888;46.748;8.102;2023-02-25T06:01:23;11.80;53.70
15574;DHT22;7888;46.748;8.102;2023-02-25T06:03:53;11.70;53.90
15574;DHT22;7888;46.748;8.102;2023-02-25T06:06:23;11.70;53.80
15574;DHT22;7888;46.748;8.102;2023-02-25T06:08:51;11.70;53.50
15574;DHT22;7888;46.748;8.102;2023-02-25T06:11:28;11.70;53.70
15574;DHT22;7888;46.748;8.102;2023-02-25T06:13:56;11.70;54.30
15574;DHT22;7888;46.748;8.102;2023-02-25T06:16:24;11.70;54.00
15574;DHT22;7888;46.748;8.102;2023-02-25T06:18:54;11.70;54.00
15574;DHT22;7888;46.748;8.102;2023-02-25T06:21:20;11.60;53.80
15574;DHT22;7888;46.748;8.102;2023-02-25T06:23:47;11.60;53.90
15574;DHT22;7888;46.748;8.102;2023-02-25T06:26:16;11.60;54.00
15574;DHT22;7888;46.748;8.102;2023-02-25T06:28:42;11.60;54.00
15574;DHT22;7888;46.748;8.102;2023-02-25T06:31:10;11.60;54.10
15574;DHT22;7888;46.748;8.102;2023-02-25T06:33:39;11.60;54.70
15574;DHT22;7888;46.748;8.102;2023-02-25T06:36:06;11.60;54.10
15574;DHT22;7888;46.748;8.102;2023-02-25T06:38:33;11.60;54.20
15574;DHT22;7888;46.748;8.102;2023-02-25T06:40:59;11.60;54.30
15574;DHT22;7888;46.748;8.102;2023-02-25T06:43:30;11.60;54.40
15574;DHT22;7888;46.748;8.102;2023-02-25T06:45:55;11.60;54.40
15574;DHT22;7888;46.748;8.102;2023-02-25T06:48:21;11.60;54.40
15574;DHT22;7888;46.748;8.102;2023-02-25T06:50:48;11.60;54.40
15574;DHT22;7888;46.748;8.102;2023-02-25T06:53:14;11.60;54.50
15574;DHT22;7888;46.748;8.102;2023-02-25T06:55:40;11.60;54.50
15574;DHT22;7888;46.748;8.102;2023-02-25T06:58:06;11.60;54.60
15574;DHT22;7888;46.748;8.102;2023-02-25T07:00:32;11.60;54.50
15574;DHT22;7888;46.748;8.102;2023-02-25T07:02:57;11.70;54.50
15574;DHT22;7888;46.748;8.102;2023-02-25T07:05:23;11.70;54.40
15574;DHT22;7888;46.748;8.102;2023-02-25T07:07:49;11.70;54.30
15574;DHT22;7888;46.748;8.102;2023-02-25T07:10:15;11.70;55.10
15574;DHT22;7888;46.748;8.102;2023-02-25T07:12:41;11.70;54.50
15574;DHT22;7888;46.748;8.102;2023-02-25T07:15:07;11.70;54.60
15574;DHT22;7888;46.748;8.102;2023-02-25T07:17:33;11.70;54.60
15574;DHT22;7888;46.748;8.102;2023-02-25T07:19:59;11.70;54.40
15574;DHT22;7888;46.748;8.102;2023-02-25T07:22:25;11.70;54.30
15574;DHT22;7888;46.748;8.102;2023-02-25T07:24:51;11.70;54.40
15574;DHT22;7888;46.748;8.102;2023-02-25T07:27:16;11.70;54.40
15574;DHT22;7888;46.748;8.102;2023-02-25T07:29:42;11.70;54.40
15574;DHT22;7888;46.748;8.102;2023-02-25T07:32:08;11.70;54.30
15574;DHT22;7888;46.748;8.102;2023-02-25T07:34:35;11.70;54.30
15574;DHT22;7888;46.748;8.102;2023-02-25T07:37:01;11.80;54.40
15574;DHT22;7888;46.748;8.102;2023-02-25T07:39:27;11.80;54.50
15574;DHT22;7888;46.748;8.102;2023-02-25T07:41:53;11.80;54.40
15574;DHT22;7888;46.748;8.102;2023-02-25T07:44:19;11.80;54.30
15574;DHT22;7888;46.748;8.102;2023-02-25T07:46:44;11.80;54.40
15574;DHT22;7888;46.748;8.102;2023-02-25T07:49:10;11.80;54.40
15574;DHT22;7888;46.748;8.102;2023-02-25T07:51:36;11.80;54.40
15574;DHT22;7888;46.748;8.102;2023-02-25T07:54:02;11.80;54.40
15574;DHT22;7888;46.748;8.102;2023-02-25T07:56:29;11.80;54.30
15574;DHT22;7888;46.748;8.102;2023-02-25T07:58:55;11.80;54.10
15574;DHT22;7888;46.748;8.102;2023-02-25T08:01:27;11.80;54.00
15574;DHT22;7888;46.748;8.102;2023-02-25T08:03:59;11.80;54.00
15574;DHT22;7888;46.748;8.102;2023-02-25T08:06:28;11.80;53.80
15574;DHT22;7888;46.748;8.102;2023-02-25T08:08:55;11.80;53.80
15574;DHT22;7888;46.748;8.102;2023-02-25T08:11:23;11.80;53.80
15574;DHT22;7888;46.748;8.102;2023-02-25T08:13:49;11.80;53.70
15574;DHT22;7888;46.748;8.102;2023-02-25T08:16:17;11.80;53.50
15574;DHT22;7888;46.748;8.102;2023-02-25T08:18:44;11.80;53.40
15574;DHT22;7888;46.748;8.102;2023-02-25T08:21:12;11.80;53.40
15574;DHT22;7888;46.748;8.102;2023-02-25T08:23:40;11.80;53.30
15574;DHT22;7888;46.748;8.102;2023-02-25T08:26:06;11.80;53.20
15574;DHT22;7888;46.748;8.102;2023-02-25T08:28:34;11.80;53.20
15574;DHT22;7888;46.748;8.102;2023-02-25T08:31:00;11.90;53.40
15574;DHT22;7888;46.748;8.102;2023-02-25T08:33:27;11.90;53.20
15574;DHT22;7888;46.748;8.102;2023-02-25T08:35:54;11.90;53.10
15574;DHT22;7888;46.748;8.102;2023-02-25T08:38:20;11.90;53.10
15574;DHT22;7888;46.748;8.102;2023-02-25T08:40:46;11.90;53.10
15574;DHT22;7888;46.748;8.102;2023-02-25T08:43:12;11.90;53.10
15574;DHT22;7888;46.748;8.102;2023-02-25T08:45:40;11.90;53.20
15574;DHT22;7888;46.748;8.102;2023-02-25T08:48:06;11.90;53.10
15574;DHT22;7888;46.748;8.102;2023-02-25T08:50:32;11.90;53.10
15574;DHT22;7888;46.748;8.102;2023-02-25T08:52:58;11.90;53.20
15574;DHT22;7888;46.748;8.102;2023-02-25T08:55:24;12.00;53.30
15574;DHT22;7888;46.748;8.102;2023-02-25T08:57:51;12.00;53.20
15574;DHT22;7888;46.748;8.102;2023-02-25T09:00:18;11.90;53.00
15574;DHT22;7888;46.748;8.102;2023-02-25T09:02:46;12.00;53.00
15574;DHT22;7888;46.748;8.102;2023-02-25T09:05:12;12.00;53.10
15574;DHT22;7888;46.748;8.102;2023-02-25T09:07:38;12.00;53.10
15574;DHT22;7888;46.748;8.102;2023-02-25T09:10:05;12.00;53.00
15574;DHT22;7888;46.748;8.102;2023-02-25T09:12:32;12.00;52.90
15574;DHT22;7888;46.748;8.102;2023-02-25T09:14:58;12.00;52.90
15574;DHT22;7888;46.748;8.102;2023-02-25T09:17:24;12.00;52.80
15574;DHT22;7888;46.748;8.102;2023-02-25T09:19:50;11.90;52.60
15574;DHT22;7888;46.748;8.102;2023-02-25T09:22:16;11.90;52.60
15574;DHT22;7888;46.748;8.102;2023-02-25T09:24:44;12.00;52.50
15574;DHT22;7888;46.748;8.102;2023-02-25T09:27:11;12.00;52.40
15574;DHT22;7888;46.748;8.102;2023-02-25T09:29:38;11.90;52.30
15574;DHT22;7888;46.748;8.102;2023-02-25T09:32:06;11.90;52.30
15574;DHT22;7888;46.748;8.102;2023-02-25T09:34:33;11.90;52.20
15574;DHT22;7888;46.748;8.102;2023-02-25T09:37:02;11.90;52.20
15574;DHT22;7888;46.748;8.102;2023-02-25T09:39:29;11.90;52.20
15574;DHT22;7888;46.748;8.102;2023-02-25T09:42:06;11.90;52.30
15574;DHT22;7888;46.748;8.102;2023-02-25T09:44:38;11.90;52.40
15574;DHT22;7888;46.748;8.102;2023-02-25T09:50:02;11.90;52.80
15574;DHT22;7888;46.748;8.102;2023-02-25T09:52:46;11.90;52.60
15574;DHT22;7888;46.748;8.102;2023-02-25T09:55:21;11.90;52.40
15574;DHT22;7888;46.748;8.102;2023-02-25T09:58:12;11.90;52.10
15574;DHT22;7888;46.748;8.102;2023-02-25T10:00:56;12.00;52.40
15574;DHT22;7888;46.748;8.102;2023-02-25T10:06:40;12.00;52.50
15574;DHT22;7888;46.748;8.102;2023-02-25T10:09:35;12.10;52.10
15574;DHT22;7888;46.748;8.102;2023-02-25T10:16:09;12.10;52.70
15574;DHT22;7888;46.748;8.102;2023-02-25T10:18:40;12.10;52.20
15574;DHT22;7888;46.748;8.102;2023-02-25T10:24:31;12.20;51.70
15574;DHT22;7888;46.748;8.102;2023-02-25T10:27:29;12.20;51.70
15574;DHT22;7888;46.748;8.102;2023-02-25T10:30:11;12.20;51.60
15574;DHT22;7888;46.748;8.102;2023-02-25T10:32:42;12.20;51.50
15574;DHT22;7888;46.748;8.102;2023-02-25T10:35:25;12.20;51.50
15574;DHT22;7888;46.748;8.102;2023-02-25T10:37:53;12.20;51.40
15574;DHT22;7888;46.748;8.102;2023-02-25T10:40:22;12.20;51.60
15574;DHT22;7888;46.748;8.102;2023-02-25T10:42:57;12.20;51.50
15574;DHT22;7888;46.748;8.102;2023-02-25T10:45:28;12.30;51.40
15574;DHT22;7888;46.748;8.102;2023-02-25T10:48:06;12.30;51.40
15574;DHT22;7888;46.748;8.102;2023-02-25T10:50:38;12.30;51.50
15574;DHT22;7888;46.748;8.102;2023-02-25T10:53:15;12.30;51.30
15574;DHT22;7888;46.748;8.102;2023-02-25T11:01:16;12.40;51.30
15574;DHT22;7888;46.748;8.102;2023-02-25T11:03:53;12.40;51.20
15574;DHT22;7888;46.748;8.102;2023-02-25T11:06:33;12.40;51.00
15574;DHT22;7888;46.748;8.102;2023-02-25T11:09:05;12.40;50.90
15574;DHT22;7888;46.748;8.102;2023-02-25T11:11:59;12.40;51.00
15574;DHT22;7888;46.748;8.102;2023-02-25T11:14:35;12.40;51.00
15574;DHT22;7888;46.748;8.102;2023-02-25T11:17:17;12.40;51.20
15574;DHT22;7888;46.748;8.102;2023-02-25T11:19:52;12.40;51.50
15574;DHT22;7888;46.748;8.102;2023-02-25T11:22:42;12.40;51.30
15574;DHT22;7888;46.748;8.102;2023-02-25T11:25:16;12.40;50.60
15574;DHT22;7888;46.748;8.102;2023-02-25T11:27:50;12.40;50.70
15574;DHT22;7888;46.748;8.102;2023-02-25T11:30:37;12.40;50.80
15574;DHT22;7888;46.748;8.102;2023-02-25T11:33:36;12.40;50.60
15574;DHT22;7888;46.748;8.102;2023-02-25T11:36:05;12.40;50.80
15574;DHT22;7888;46.748;8.102;2023-02-25T11:38:37;12.40;50.80
15574;DHT22;7888;46.748;8.102;2023-02-25T11:41:16;12.40;50.90
15574;DHT22;7888;46.748;8.102;2023-02-25T11:43:47;12.40;50.80
15574;DHT22;7888;46.748;8.102;2023-02-25T11:46:23;12.40;51.00
15574;DHT22;7888;46.748;8.102;2023-02-25T11:49:13;12.40;51.00
15574;DHT22;7888;46.748;8.102;2023-02-25T11:58:03;12.50;50.90
15574;DHT22;7888;46.748;8.102;2023-02-25T12:00:41;12.50;50.90
15574;DHT22;7888;46.748;8.102;2023-02-25T12:06:07;12.50;50.90
15574;DHT22;7888;46.748;8.102;2023-02-25T12:09:26;12.50;50.90
15574;DHT22;7888;46.748;8.102;2023-02-25T12:15:59;12.50;50.80
15574;DHT22;7888;46.748;8.102;2023-02-25T12:19:08;12.50;50.80
15574;DHT22;7888;46.748;8.102;2023-02-25T12:25:20;12.50;50.50
15574;DHT22;7888;46.748;8.102;2023-02-25T12:34:29;12.40;50.50
15574;DHT22;7888;46.748;8.102;2023-02-25T13:01:19;12.30;50.50
15574;DHT22;7888;46.748;8.102;2023-02-25T13:06:28;12.30;50.30
15574;DHT22;7888;46.748;8.102;2023-02-25T13:15:29;12.10;50.10
15574;DHT22;7888;46.748;8.102;2023-02-25T13:26:43;12.10;50.60
15574;DHT22;7888;46.748;8.102;2023-02-25T13:32:55;12.10;50.30
15574;DHT22;7888;46.748;8.102;2023-02-25T13:46:51;12.00;50.20
15574;DHT22;7888;46.748;8.102;2023-02-25T13:55:45;12.00;50.10
15574;DHT22;7888;46.748;8.102;2023-02-25T14:15:11;11.60;50.00
15574;DHT22;7888;46.748;8.102;2023-02-25T14:24:06;11.30;50.10
15574;DHT22;7888;46.748;8.102;2023-02-25T14:38:11;11.10;50.20
15574;DHT22;7888;46.748;8.102;2023-02-25T14:54:50;10.80;50.60
15574;DHT22;7888;46.748;8.102;2023-02-25T15:10:02;10.50;50.60
15574;DHT22;7888;46.748;8.102;2023-02-25T15:21:42;10.30;50.70
15574;DHT22;7888;46.748;8.102;2023-02-25T15:26:52;10.30;50.60
15574;DHT22;7888;46.748;8.102;2023-02-25T15:32:25;10.30;50.10
15574;DHT22;7888;46.748;8.102;2023-02-25T15:35:03;10.30;50.20
15574;DHT22;7888;46.748;8.102;2023-02-25T15:40:52;10.30;50.40
15574;DHT22;7888;46.748;8.102;2023-02-25T15:55:48;10.30;50.50
15574;DHT22;7888;46.748;8.102;2023-02-25T16:01:00;10.30;50.50
15574;DHT22;7888;46.748;8.102;2023-02-25T16:09:00;10.40;50.50
15574;DHT22;7888;46.748;8.102;2023-02-25T16:11:38;10.40;50.30
15574;DHT22;7888;46.748;8.102;2023-02-25T16:14:30;10.30;51.00
15574;DHT22;7888;46.748;8.102;2023-02-25T16:17:05;10.30;50.30
15574;DHT22;7888;46.748;8.102;2023-02-25T16:19:39;10.40;50.20
15574;DHT22;7888;46.748;8.102;2023-02-25T16:22:12;10.30;50.20
15574;DHT22;7888;46.748;8.102;2023-02-25T16:24:46;10.30;50.10
15574;DHT22;7888;46.748;8.102;2023-02-25T16:30:21;10.30;50.20
15574;DHT22;7888;46.748;8.102;2023-02-25T16:40:58;10.10;50.00
15574;DHT22;7888;46.748;8.102;2023-02-25T16:43:28;10.00;50.00
15574;DHT22;7888;46.748;8.102;2023-02-25T16:45:58;10.00;50.10
15574;DHT22;7888;46.748;8.102;2023-02-25T16:48:31;10.00;50.10
15574;DHT22;7888;46.748;8.102;2023-02-25T16:53:53;9.90;50.00
15574;DHT22;7888;46.748;8.102;2023-02-25T16:56:24;9.90;50.00
15574;DHT22;7888;46.748;8.102;2023-02-25T17:01:58;9.80;50.00
15574;DHT22;7888;46.748;8.102;2023-02-25T17:04:50;9.80;50.10
15574;DHT22;7888;46.748;8.102;2023-02-25T17:07:25;9.80;50.10
15574;DHT22;7888;46.748;8.102;2023-02-25T17:10:00;9.70;50.00
15574;DHT22;7888;46.748;8.102;2023-02-25T17:15:02;9.70;50.00
15574;DHT22;7888;46.748;8.102;2023-02-25T17:17:36;9.70;50.10
15574;DHT22;7888;46.748;8.102;2023-02-25T17:20:15;9.60;50.10
15574;DHT22;7888;46.748;8.102;2023-02-25T17:22:48;9.60;50.40
15574;DHT22;7888;46.748;8.102;2023-02-25T17:25:16;9.60;50.30
15574;DHT22;7888;46.748;8.102;2023-02-25T17:27:46;9.50;50.30
15574;DHT22;7888;46.748;8.102;2023-02-25T17:30:34;9.50;50.50
15574;DHT22;7888;46.748;8.102;2023-02-25T17:33:05;9.50;50.60
15574;DHT22;7888;46.748;8.102;2023-02-25T17:35:42;9.50;50.50
15574;DHT22;7888;46.748;8.102;2023-02-25T17:38:14;9.40;50.50
15574;DHT22;7888;46.748;8.102;2023-02-25T17:40:44;9.40;50.60
15574;DHT22;7888;46.748;8.102;2023-02-25T17:45:40;9.30;50.60
15574;DHT22;7888;46.748;8.102;2023-02-25T17:48:17;9.30;50.60
15574;DHT22;7888;46.748;8.102;2023-02-25T17:53:49;9.30;50.70
15574;DHT22;7888;46.748;8.102;2023-02-25T17:56:24;9.30;50.80
15574;DHT22;7888;46.748;8.102;2023-02-25T17:58:58;9.30;50.90
15574;DHT22;7888;46.748;8.102;2023-02-25T18:01:28;9.30;50.90
15574;DHT22;7888;46.748;8.102;2023-02-25T18:03:56;9.30;50.90
15574;DHT22;7888;46.748;8.102;2023-02-25T18:06:42;9.30;50.80
15574;DHT22;7888;46.748;8.102;2023-02-25T18:12:02;9.40;50.60
15574;DHT22;7888;46.748;8.102;2023-02-25T18:14:36;9.40;50.50
15574;DHT22;7888;46.748;8.102;2023-02-25T18:17:49;9.30;50.20
15574;DHT22;7888;46.748;8.102;2023-02-25T18:20:39;9.40;50.00
15574;DHT22;7888;46.748;8.102;2023-02-25T18:28:15;9.20;49.70
15574;DHT22;7888;46.748;8.102;2023-02-25T18:30:43;9.10;49.80
15574;DHT22;7888;46.748;8.102;2023-02-25T18:33:10;9.10;49.80
15574;DHT22;7888;46.748;8.102;2023-02-25T18:35:38;9.00;49.80
15574;DHT22;7888;46.748;8.102;2023-02-25T18:38:08;9.00;49.80
15574;DHT22;7888;46.748;8.102;2023-02-25T18:40:46;9.00;49.90
15574;DHT22;7888;46.748;8.102;2023-02-25T18:43:14;8.90;50.40
15574;DHT22;7888;46.748;8.102;2023-02-25T18:45:42;8.90;49.90
15574;DHT22;7888;46.748;8.102;2023-02-25T18:48:08;8.80;49.80
15574;DHT22;7888;46.748;8.102;2023-02-25T18:50:35;8.90;49.90
15574;DHT22;7888;46.748;8.102;2023-02-25T18:53:02;8.90;50.00
15574;DHT22;7888;46.748;8.102;2023-02-25T18:55:30;8.90;50.10
15574;DHT22;7888;46.748;8.102;2023-02-25T18:57:58;8.80;50.00
15574;DHT22;7888;46.748;8.102;2023-02-25T19:00:25;8.80;49.90
15574;DHT22;7888;46.748;8.102;2023-02-25T19:02:54;8.80;50.00
15574;DHT22;7888;46.748;8.102;2023-02-25T19:05:23;8.80;50.00
15574;DHT22;7888;46.748;8.102;2023-02-25T19:07:50;8.80;50.00
15574;DHT22;7888;46.748;8.102;2023-02-25T19:10:20;8.80;50.00
15574;DHT22;7888;46.748;8.102;2023-02-25T19:12:48;8.80;50.10
15574;DHT22;7888;46.748;8.102;2023-02-25T19:15:20;8.80;50.10
15574;DHT22;7888;46.748;8.102;2023-02-25T19:17:47;8.80;50.00
15574;DHT22;7888;46.748;8.102;2023-02-25T19:20:14;8.80;49.90
15574;DHT22;7888;46.748;8.102;2023-02-25T19:22:43;8.80;49.80
15574;DHT22;7888;46.748;8.102;2023-02-25T19:25:22;8.80;49.80
15574;DHT22;7888;46.748;8.102;2023-02-25T19:27:53;8.80;49.60
15574;DHT22;7888;46.748;8.102;2023-02-25T19:30:23;8.80;49.80
15574;DHT22;7888;46.748;8.102;2023-02-25T19:32:51;8.80;49.70
15574;DHT22;7888;46.748;8.102;2023-02-25T19:35:18;8.80;49.70
15574;DHT22;7888;46.748;8.102;2023-02-25T19:37:43;8.80;49.70
15574;DHT22;7888;46.748;8.102;2023-02-25T19:40:12;8.80;49.70
15574;DHT22;7888;46.748;8.102;2023-02-25T19:42:43;8.80;49.60
15574;DHT22;7888;46.748;8.102;2023-02-25T19:45:13;8.80;49.50
15574;DHT22;7888;46.748;8.102;2023-02-25T19:47:41;8.70;49.40
15574;DHT22;7888;46.748;8.102;2023-02-25T19:50:09;8.70;49.40
15574;DHT22;7888;46.748;8.102;2023-02-25T19:52:36;8.70;49.30
15574;DHT22;7888;46.748;8.102;2023-02-25T19:55:04;8.70;49.40
15574;DHT22;7888;46.748;8.102;2023-02-25T19:57:32;8.60;49.30
15574;DHT22;7888;46.748;8.102;2023-02-25T19:59:58;8.60;49.30
15574;DHT22;7888;46.748;8.102;2023-02-25T20:02:24;8.60;49.40
15574;DHT22;7888;46.748;8.102;2023-02-25T20:04:50;8.50;49.30
15574;DHT22;7888;46.748;8.102;2023-02-25T20:07:16;8.50;49.30
15574;DHT22;7888;46.748;8.102;2023-02-25T20:09:42;8.40;49.30
15574;DHT22;7888;46.748;8.102;2023-02-25T20:12:08;8.40;49.40
15574;DHT22;7888;46.748;8.102;2023-02-25T20:14:34;8.30;49.30
15574;DHT22;7888;46.748;8.102;2023-02-25T20:17:01;8.30;49.30
15574;DHT22;7888;46.748;8.102;2023-02-25T20:19:29;8.30;49.30
15574;DHT22;7888;46.748;8.102;2023-02-25T20:22:01;8.20;49.30
15574;DHT22;7888;46.748;8.102;2023-02-25T20:24:30;8.20;49.30
15574;DHT22;7888;46.748;8.102;2023-02-25T20:26:56;8.10;49.90
15574;DHT22;7888;46.748;8.102;2023-02-25T20:29:24;8.10;49.40
15574;DHT22;7888;46.748;8.102;2023-02-25T20:31:51;8.10;49.50
15574;DHT22;7888;46.748;8.102;2023-02-25T20:34:20;8.00;49.80
15574;DHT22;7888;46.748;8.102;2023-02-25T20:37:01;8.00;49.70